createdAt,value
2022-11-24T04:46:26.954Z,99547.00
2022-11-24T04:49:30.081Z,99547.00
2022-11-24T04:52:32.386Z,99552.16
2022-11-24T04:55:34.910Z,99552.88
2022-11-24T04:58:37.582Z,99558.69
2022-11-24T05:01:42.434Z,99558.72
2022-11-24T05:04:45.678Z,99563.88
2022-11-24T05:07:48.396Z,99570.97
2022-11-24T05:10:50.809Z,99583.72
2022-11-24T05:13:53.684Z,99581.16
2022-11-24T05:16:56.057Z,99576.72
2022-11-24T05:19:58.810Z,99579.66
2022-11-24T05:23:06.076Z,99574.13
2022-11-24T05:26:08.780Z,99588.59
2022-11-24T05:29:11.150Z,99581.44
2022-11-24T05:32:13.939Z,99588.97
2022-11-24T05:35:16.991Z,99581.91
2022-11-24T05:38:19.823Z,99585.91
2022-11-24T05:41:22.111Z,99588.63
2022-11-24T05:44:24.733Z,99583.19
2022-11-24T05:47:26.995Z,99596.03
2022-11-24T05:50:29.724Z,99600.91
2022-11-24T05:53:32.174Z,99598.06
2022-11-24T05:56:34.747Z,99602.59
2022-11-24T05:59:37.151Z,99607.94
2022-11-24T06:02:40.060Z,99602.88
2022-11-24T06:05:46.891Z,99613.63
2022-11-24T06:08:49.307Z,99607.53
2022-11-24T06:11:51.863Z,99615.62
2022-11-24T06:14:54.194Z,99609.75
2022-11-24T06:17:56.912Z,99611.41
2022-11-24T06:21:10.928Z,99615.84
2022-11-24T06:24:14.757Z,99624.56
2022-11-24T06:27:17.742Z,99623.59
2022-11-24T06:30:20.430Z,99635.94
2022-11-24T06:33:22.678Z,99647.41
2022-11-24T06:36:25.619Z,99646.41
2022-11-24T06:39:27.930Z,99650.53
2022-11-24T06:42:31.229Z,99663.53
2022-11-24T06:45:34.089Z,99658.50
2022-11-24T06:48:37.228Z,99675.56
2022-11-24T06:51:39.835Z,99669.38
2022-11-24T06:54:43.428Z,99678.78
2022-11-24T06:57:45.768Z,99680.25
2022-11-24T07:00:48.365Z,99677.56
2022-11-24T07:03:53.074Z,99682.91
2022-11-24T07:06:55.607Z,99691.53
2022-11-24T07:09:58.136Z,99701.34
2022-11-24T07:13:03.737Z,99698.53
2022-11-24T07:16:16.612Z,99704.28
2022-11-24T07:19:24.720Z,99711.22
2022-11-24T07:22:27.817Z,99704.94
2022-11-24T07:25:30.516Z,99717.03
2022-11-24T07:28:33.330Z,99714.19
2022-11-24T07:31:35.984Z,99710.19
2022-11-24T07:34:39.455Z,99722.91
2022-11-24T07:37:42.245Z,99720.06
2022-11-24T07:40:44.556Z,99718.66
2022-11-24T07:43:48.584Z,99721.44
2022-11-24T07:46:51.307Z,99724.47
2022-11-24T07:49:53.820Z,99718.28
2022-11-24T07:53:00.602Z,99727.00
2022-11-24T07:56:05.560Z,99736.56
2022-11-24T07:59:08.032Z,99726.72
2022-11-24T08:02:13.009Z,99737.09
2022-11-24T08:05:15.640Z,99728.44
2022-11-24T08:08:17.958Z,99733.69
2022-11-24T08:11:20.557Z,99737.94
2022-11-24T08:14:22.854Z,99736.78
2022-11-24T08:17:25.560Z,99725.09
2022-11-24T08:20:28.403Z,99735.19
2022-11-24T08:23:31.187Z,99741.13
2022-11-24T08:26:33.489Z,99747.84
2022-11-24T08:29:36.142Z,99751.13
2022-11-24T08:32:38.461Z,99755.84
2022-11-24T08:35:41.013Z,99764.63
2022-11-24T08:38:44.786Z,99758.69
2022-11-24T08:41:47.614Z,99761.25
2022-11-24T08:44:49.880Z,99770.81
2022-11-24T08:47:54.265Z,99774.09
2022-11-24T08:50:57.349Z,99766.06
2022-11-24T08:54:00.893Z,99765.88
2022-11-24T08:57:03.123Z,99766.78
2022-11-24T09:00:06.373Z,99764.03
2022-11-24T09:03:12.482Z,99754.63
2022-11-24T09:06:16.093Z,99759.91
2022-11-24T09:09:18.450Z,99773.50
2022-11-24T09:12:21.188Z,99773.91
2022-11-24T09:15:23.441Z,99775.19
2022-11-24T09:18:30.094Z,99781.59
2022-11-24T09:21:34.283Z,99780.50
2022-11-24T09:24:37.044Z,99785.03
2022-11-24T09:27:39.454Z,99781.19
2022-11-24T09:30:42.055Z,99778.97
2022-11-24T09:33:45.108Z,99776.09
2022-11-24T09:36:47.657Z,99778.56
2022-11-24T09:39:50.140Z,99780.50
2022-11-24T09:42:55.622Z,99781.94
2022-11-24T09:46:13.005Z,99786.69
2022-11-24T09:49:22.137Z,99789.31
2022-11-24T09:53:01.011Z,99791.41
2022-11-24T09:56:15.445Z,99787.19
2022-11-24T09:59:22.650Z,99788.34
2022-11-24T10:02:25.275Z,99789.94
2022-11-24T10:05:30.531Z,99784.00
2022-11-24T10:08:59.249Z,99790.81
2022-11-24T10:12:46.661Z,99803.28
2022-11-24T10:16:18.210Z,99789.34
2022-11-24T10:19:40.252Z,99795.91
2022-11-24T10:23:25.987Z,99789.03
2022-11-24T10:26:36.721Z,99799.41
2022-11-24T10:29:43.422Z,99788.34
2022-11-24T10:32:48.842Z,99801.09
2022-11-24T10:36:07.662Z,99784.47
2022-11-24T10:39:20.593Z,99803.81
2022-11-24T10:42:36.845Z,99801.44
2022-11-24T10:45:40.396Z,99800.38
2022-11-24T10:48:53.640Z,99789.50
2022-11-24T10:52:05.785Z,99810.09
2022-11-24T10:55:08.461Z,99822.06
2022-11-24T10:58:17.458Z,99813.81
2022-11-24T11:01:32.817Z,99816.75
2022-11-24T11:04:35.838Z,99824.84
2022-11-24T11:07:38.240Z,99825.41
2022-11-24T11:10:42.477Z,99826.91
2022-11-24T11:14:03.965Z,99827.34
2022-11-24T11:17:32.775Z,99840.63
2022-11-24T11:20:35.198Z,99842.69
2022-11-24T11:23:39.962Z,99849.37
2022-11-24T11:26:42.997Z,99853.63
2022-11-24T11:36:48.183Z,99841.97
2022-11-24T11:39:53.389Z,99851.44
2022-11-24T11:43:21.896Z,99860.97
2022-11-24T11:46:25.050Z,99860.72
2022-11-24T11:49:27.694Z,99849.34
2022-11-24T11:52:48.968Z,99848.59
2022-11-24T11:56:06.810Z,99849.13
2022-11-24T11:59:33.044Z,99849.13
2022-11-24T12:02:53.437Z,99854.13
2022-11-24T12:06:21.963Z,99857.66
2022-11-24T12:09:41.426Z,99858.38
2022-11-24T12:12:46.886Z,99858.22
2022-11-24T12:15:52.614Z,99854.25
2022-11-24T12:19:22.354Z,99858.66
2022-11-24T12:22:32.968Z,99854.63
2022-11-24T12:25:42.497Z,99852.69
2022-11-24T12:29:12.589Z,99846.94
2022-11-24T12:32:52.452Z,99853.50
2022-11-24T12:36:10.668Z,99853.88
2022-11-24T12:39:34.389Z,99854.78
2022-11-24T12:42:55.425Z,99838.66
2022-11-24T12:46:23.174Z,99862.16
2022-11-24T12:49:38.097Z,99873.41
2022-11-24T12:52:46.596Z,99880.75
2022-11-24T12:55:49.202Z,99888.81
2022-11-24T12:59:11.513Z,99892.56
2022-11-24T13:02:25.144Z,99902.47
2022-11-24T13:05:47.217Z,99900.91
2022-11-24T13:08:50.139Z,99904.63
2022-11-24T13:11:59.155Z,99906.75
2022-11-24T13:18:53.368Z,99907.56
2022-11-24T13:22:23.949Z,99908.66
2022-11-24T13:25:34.508Z,99906.97
2022-11-24T13:29:06.171Z,99919.16
2022-11-24T13:32:11.827Z,99910.53
2022-11-24T13:35:16.610Z,99914.91
2022-11-24T13:38:58.906Z,99914.91
2022-11-24T13:42:01.760Z,99921.72
2022-11-24T13:45:25.729Z,99923.19
2022-11-24T13:48:28.084Z,99923.97
2022-11-24T13:51:31.000Z,99919.69
2022-11-24T13:54:33.838Z,99922.41
2022-11-24T13:57:49.148Z,99925.59
2022-11-24T14:01:25.485Z,99929.19
2022-11-24T14:04:31.115Z,99930.94
2022-11-24T14:07:34.394Z,99939.34
2022-11-24T14:10:40.597Z,99939.69
2022-11-24T14:13:43.488Z,99939.03
2022-11-24T14:16:46.057Z,99940.78
2022-11-24T14:19:50.765Z,99950.09
2022-11-24T14:22:54.082Z,99957.81
2022-11-24T14:25:56.431Z,99951.09
2022-11-24T14:29:12.105Z,99961.16
2022-11-24T14:32:16.367Z,99961.16
2022-11-24T14:35:36.111Z,99965.63
2022-11-24T14:38:38.585Z,99967.72
2022-11-24T14:41:43.981Z,99977.22
2022-11-24T14:44:51.734Z,99985.44
2022-11-24T14:47:55.640Z,99985.19
2022-11-24T14:51:06.014Z,99990.28
2022-11-24T14:54:18.022Z,99988.00
2022-11-24T14:57:22.770Z,99990.97
2022-11-24T15:00:26.908Z,100006.03
2022-11-24T15:03:29.347Z,100011.94
2022-11-24T15:06:31.800Z,100009.34
2022-11-24T15:09:49.215Z,100023.66
2022-11-24T15:12:58.459Z,100018.44
2022-11-24T15:16:14.709Z,100015.91
2022-11-24T15:19:18.876Z,100019.66
2022-11-24T15:22:41.480Z,100018.22
2022-11-24T15:25:44.302Z,100020.09
2022-11-24T15:28:46.937Z,100018.72
2022-11-24T15:31:52.785Z,100018.81
2022-11-24T15:34:55.383Z,100025.34
2022-11-24T15:37:58.246Z,100024.84
2022-11-24T15:41:01.694Z,100025.53
2022-11-24T15:44:04.502Z,100032.41
2022-11-24T15:47:07.022Z,100042.03
2022-11-24T15:50:10.315Z,100037.19
2022-11-24T15:53:21.469Z,100036.87
2022-11-24T15:56:32.992Z,100035.31
2022-11-24T15:59:36.230Z,100035.22
2022-11-24T16:02:39.043Z,100044.06
2022-11-24T16:05:42.232Z,100045.81
2022-11-24T16:08:44.608Z,100047.88
2022-11-24T16:11:47.301Z,100050.50
2022-11-24T16:14:49.819Z,100051.56
2022-11-24T16:17:52.703Z,100054.81
2022-11-24T16:20:55.388Z,100047.94
2022-11-24T16:23:58.114Z,100043.66
2022-11-24T16:27:00.592Z,100049.00
2022-11-24T16:30:04.001Z,100042.22
2022-11-24T16:33:06.933Z,100049.31
2022-11-24T16:36:09.713Z,100049.41
2022-11-24T16:39:12.391Z,100043.25
